Fairfield, VT

5:29 PM EST on March 06, 2015 (GMT -0500)
Pineview Estates | Change Station
CLOSE
Current Station
Personal Weather Station
Location: Saint Albans, VT
Elevation: 492 ft
Nearby Weather Stations

Elev 492 ft 44.79 °N, 73.08 °W | Updated 13 minutes ago

Clear
Clear
21.0 °F
Feels Like 11 °F
N
8.9
Wind Variable Wind from South

Today
High -- | Low -- °F
--% Chance of Precip.
Yesterday
High -- | Low -- °F
Precip. -- in
6:21 AM 5:46 PM
Full, 99% visible
Pressure 30.25 in
Visibility 10.0 miles
Clouds Clear
Windchill 11 °F
Dew Point -3 °F
Humidity 34%
Rainfall in
Snow Depth Not available.
UV 0 out of 12
Pollen .40 out of 12
Air Quality Not available.
Flu Activity Not available.
METAR KFSO 062215Z AUTO 19005KT 10SM CLR M06/M19 A3025 RMK AO2 T10571194

More Conditions Fewer Conditions

Pressure 30.25 in
Visibility 10.0 miles
Clouds Clear
Windchill 11 °F
Dew Point -3 °F
Humidity 34%
Rainfall in
Snow Depth Not available.
UV 0 out of 12
Pollen .40 out of 12
Air Quality Not available.
Flu Activity Not available.
METAR KFSO 062215Z AUTO 19005KT 10SM CLR M06/M19 A3025 RMK AO2 T10571194

More Conditions Fewer Conditions

10-Day Weather Forecast

Almanac

Astronomy

Mar. 06, 2015 Rise Set
Actual Time
Civil Twilight
Nautical Twilight
Astronomical Twilight
Moon
Length of Visible Light
Length of Day
Tomorrow will be .
, % of the Moon is Illuminated

Today's Extremes

State Highs State Lows

Community

WunderPhotos

Upload Photos

1,803,420 photos uploaded!

WunderBlogs® & News

Nearby

Air Quality

  Air Quality AQ Index Pollutant
Not available.

Snow Depth

Station Depth Elevation

Earthquake Activity

City Distance Mag. Time & Date
Minimum magnitude displayed is 2.5.

Coastal Water Temperatures

Place Temperature

Nearby Weather Stations